sensor_id;sensor_type;location;lat;lon;timestamp;P1;durP1;ratioP1;P2;durP2;ratioP2
70997;SDS011;58663;52.040;4.634;2022-07-19T00:01:34;11.93;;;4.90;;
70997;SDS011;58663;52.040;4.634;2022-07-19T00:03:59;10.18;;;4.78;;
70997;SDS011;58663;52.040;4.634;2022-07-19T00:06:25;9.30;;;4.60;;
70997;SDS011;58663;52.040;4.634;2022-07-19T00:08:51;6.32;;;4.53;;
70997;SDS011;58663;52.040;4.634;2022-07-19T00:11:16;8.80;;;4.65;;
70997;SDS011;58663;52.040;4.634;2022-07-19T00:13:42;6.22;;;4.10;;
70997;SDS011;58663;52.040;4.634;2022-07-19T00:16:07;6.75;;;3.90;;
70997;SDS011;58663;52.040;4.634;2022-07-19T00:18:33;9.13;;;4.40;;
70997;SDS011;58663;52.040;4.634;2022-07-19T00:20:58;9.63;;;4.45;;
70997;SDS011;58663;52.040;4.634;2022-07-19T00:23:24;7.15;;;4.57;;
70997;SDS011;58663;52.040;4.634;2022-07-19T00:25:49;12.88;;;4.80;;
70997;SDS011;58663;52.040;4.634;2022-07-19T00:28:14;7.85;;;4.68;;
70997;SDS011;58663;52.040;4.634;2022-07-19T00:30:40;7.32;;;5.00;;
70997;SDS011;58663;52.040;4.634;2022-07-19T00:33:05;11.10;;;4.68;;
70997;SDS011;58663;52.040;4.634;2022-07-19T00:35:36;5.82;;;3.55;;
70997;SDS011;58663;52.040;4.634;2022-07-19T00:38:03;7.53;;;4.40;;
70997;SDS011;58663;52.040;4.634;2022-07-19T00:40:31;5.70;;;3.85;;
70997;SDS011;58663;52.040;4.634;2022-07-19T00:42:57;8.52;;;3.95;;
70997;SDS011;58663;52.040;4.634;2022-07-19T00:45:23;5.53;;;4.00;;
70997;SDS011;58663;52.040;4.634;2022-07-19T00:47:48;5.40;;;3.72;;
70997;SDS011;58663;52.040;4.634;2022-07-19T00:50:14;5.53;;;3.90;;
70997;SDS011;58663;52.040;4.634;2022-07-19T00:52:40;6.65;;;3.85;;
70997;SDS011;58663;52.040;4.634;2022-07-19T00:55:07;6.10;;;4.05;;
70997;SDS011;58663;52.040;4.634;2022-07-19T00:57:33;7.90;;;4.43;;
70997;SDS011;58663;52.040;4.634;2022-07-19T01:00:03;7.85;;;4.53;;
70997;SDS011;58663;52.040;4.634;2022-07-19T01:02:30;6.57;;;3.90;;
70997;SDS011;58663;52.040;4.634;2022-07-19T01:04:56;6.03;;;3.70;;
70997;SDS011;58663;52.040;4.634;2022-07-19T01:07:22;6.82;;;4.15;;
70997;SDS011;58663;52.040;4.634;2022-07-19T01:09:48;6.63;;;4.35;;
70997;SDS011;58663;52.040;4.634;2022-07-19T01:12:14;6.32;;;4.10;;
70997;SDS011;58663;52.040;4.634;2022-07-19T01:14:39;5.47;;;4.03;;
70997;SDS011;58663;52.040;4.634;2022-07-19T01:17:05;6.93;;;4.57;;
70997;SDS011;58663;52.040;4.634;2022-07-19T01:19:30;6.80;;;4.60;;
70997;SDS011;58663;52.040;4.634;2022-07-19T01:21:56;5.88;;;4.50;;
70997;SDS011;58663;52.040;4.634;2022-07-19T01:24:22;6.90;;;4.20;;
70997;SDS011;58663;52.040;4.634;2022-07-19T01:26:47;6.57;;;4.53;;
70997;SDS011;58663;52.040;4.634;2022-07-19T01:29:16;8.57;;;4.45;;
70997;SDS011;58663;52.040;4.634;2022-07-19T01:31:42;5.45;;;4.25;;
70997;SDS011;58663;52.040;4.634;2022-07-19T01:34:07;7.28;;;4.20;;
70997;SDS011;58663;52.040;4.634;2022-07-19T01:36:32;5.13;;;4.15;;
70997;SDS011;58663;52.040;4.634;2022-07-19T01:38:58;8.23;;;3.60;;
70997;SDS011;58663;52.040;4.634;2022-07-19T01:41:24;6.18;;;3.80;;
70997;SDS011;58663;52.040;4.634;2022-07-19T01:43:49;5.05;;;3.83;;
70997;SDS011;58663;52.040;4.634;2022-07-19T01:46:15;7.00;;;4.20;;
70997;SDS011;58663;52.040;4.634;2022-07-19T01:48:40;5.18;;;3.78;;
70997;SDS011;58663;52.040;4.634;2022-07-19T01:51:06;5.90;;;3.25;;
70997;SDS011;58663;52.040;4.634;2022-07-19T01:53:31;5.38;;;3.10;;
70997;SDS011;58663;52.040;4.634;2022-07-19T01:55:56;4.85;;;3.38;;
70997;SDS011;58663;52.040;4.634;2022-07-19T01:58:22;7.05;;;3.28;;
70997;SDS011;58663;52.040;4.634;2022-07-19T02:00:47;5.85;;;3.30;;
70997;SDS011;58663;52.040;4.634;2022-07-19T02:03:13;4.82;;;2.85;;
70997;SDS011;58663;52.040;4.634;2022-07-19T02:05:38;3.80;;;2.95;;
70997;SDS011;58663;52.040;4.634;2022-07-19T02:08:04;4.00;;;3.42;;
70997;SDS011;58663;52.040;4.634;2022-07-19T02:10:30;4.95;;;3.45;;
70997;SDS011;58663;52.040;4.634;2022-07-19T02:12:55;5.55;;;3.30;;
70997;SDS011;58663;52.040;4.634;2022-07-19T02:15:21;4.30;;;3.20;;
70997;SDS011;58663;52.040;4.634;2022-07-19T02:17:46;9.05;;;3.13;;
70997;SDS011;58663;52.040;4.634;2022-07-19T02:20:12;10.18;;;3.90;;
70997;SDS011;58663;52.040;4.634;2022-07-19T02:22:38;7.13;;;3.65;;
70997;SDS011;58663;52.040;4.634;2022-07-19T02:25:03;9.50;;;4.22;;
70997;SDS011;58663;52.040;4.634;2022-07-19T02:27:29;6.13;;;4.20;;
70997;SDS011;58663;52.040;4.634;2022-07-19T02:29:54;6.82;;;3.97;;
70997;SDS011;58663;52.040;4.634;2022-07-19T02:32:20;6.68;;;4.28;;
70997;SDS011;58663;52.040;4.634;2022-07-19T02:34:45;8.63;;;4.65;;
70997;SDS011;58663;52.040;4.634;2022-07-19T02:37:11;8.35;;;5.35;;
70997;SDS011;58663;52.040;4.634;2022-07-19T02:39:36;7.45;;;4.53;;
70997;SDS011;58663;52.040;4.634;2022-07-19T02:42:02;6.95;;;5.50;;
70997;SDS011;58663;52.040;4.634;2022-07-19T02:44:28;8.35;;;5.32;;
70997;SDS011;58663;52.040;4.634;2022-07-19T02:46:53;10.15;;;5.68;;
70997;SDS011;58663;52.040;4.634;2022-07-19T02:49:18;10.18;;;5.70;;
70997;SDS011;58663;52.040;4.634;2022-07-19T02:51:45;10.57;;;5.65;;
70997;SDS011;58663;52.040;4.634;2022-07-19T02:54:11;10.73;;;5.60;;
70997;SDS011;58663;52.040;4.634;2022-07-19T02:56:36;9.20;;;6.13;;
70997;SDS011;58663;52.040;4.634;2022-07-19T02:59:03;18.35;;;6.80;;
70997;SDS011;58663;52.040;4.634;2022-07-19T03:01:29;10.35;;;6.13;;
70997;SDS011;58663;52.040;4.634;2022-07-19T03:03:55;8.23;;;5.65;;
70997;SDS011;58663;52.040;4.634;2022-07-19T03:06:22;10.60;;;6.68;;
70997;SDS011;58663;52.040;4.634;2022-07-19T03:08:47;13.05;;;6.70;;
70997;SDS011;58663;52.040;4.634;2022-07-19T03:11:13;10.93;;;6.50;;
70997;SDS011;58663;52.040;4.634;2022-07-19T03:13:38;9.80;;;6.82;;
70997;SDS011;58663;52.040;4.634;2022-07-19T03:16:05;13.55;;;7.57;;
70997;SDS011;58663;52.040;4.634;2022-07-19T03:18:31;15.80;;;7.63;;
70997;SDS011;58663;52.040;4.634;2022-07-19T03:20:56;12.48;;;7.40;;
70997;SDS011;58663;52.040;4.634;2022-07-19T03:23:24;15.13;;;7.72;;
70997;SDS011;58663;52.040;4.634;2022-07-19T03:25:51;14.05;;;7.60;;
70997;SDS011;58663;52.040;4.634;2022-07-19T03:28:17;12.57;;;6.95;;
70997;SDS011;58663;52.040;4.634;2022-07-19T03:30:42;15.73;;;7.47;;
70997;SDS011;58663;52.040;4.634;2022-07-19T03:33:09;15.63;;;7.70;;
70997;SDS011;58663;52.040;4.634;2022-07-19T03:35:36;11.55;;;7.40;;
70997;SDS011;58663;52.040;4.634;2022-07-19T03:38:01;13.38;;;6.65;;
70997;SDS011;58663;52.040;4.634;2022-07-19T03:40:27;11.80;;;7.28;;
70997;SDS011;58663;52.040;4.634;2022-07-19T03:42:52;11.18;;;6.25;;
70997;SDS011;58663;52.040;4.634;2022-07-19T03:45:18;9.38;;;6.35;;
70997;SDS011;58663;52.040;4.634;2022-07-19T03:47:43;10.63;;;6.13;;
70997;SDS011;58663;52.040;4.634;2022-07-19T03:50:09;11.13;;;5.93;;
70997;SDS011;58663;52.040;4.634;2022-07-19T03:52:34;9.98;;;6.47;;
70997;SDS011;58663;52.040;4.634;2022-07-19T03:55:00;9.30;;;6.22;;
70997;SDS011;58663;52.040;4.634;2022-07-19T03:57:25;9.85;;;5.90;;
70997;SDS011;58663;52.040;4.634;2022-07-19T03:59:51;9.60;;;6.10;;
70997;SDS011;58663;52.040;4.634;2022-07-19T04:02:16;8.93;;;5.38;;
70997;SDS011;58663;52.040;4.634;2022-07-19T04:04:41;10.63;;;6.47;;
70997;SDS011;58663;52.040;4.634;2022-07-19T04:07:07;9.63;;;6.22;;
70997;SDS011;58663;52.040;4.634;2022-07-19T04:09:32;11.45;;;6.68;;
70997;SDS011;58663;52.040;4.634;2022-07-19T04:11:58;11.90;;;6.93;;
70997;SDS011;58663;52.040;4.634;2022-07-19T04:14:23;10.82;;;6.85;;
70997;SDS011;58663;52.040;4.634;2022-07-19T04:16:49;12.10;;;6.05;;
70997;SDS011;58663;52.040;4.634;2022-07-19T04:19:14;9.93;;;6.28;;
70997;SDS011;58663;52.040;4.634;2022-07-19T04:21:40;10.30;;;6.15;;
70997;SDS011;58663;52.040;4.634;2022-07-19T04:24:05;9.73;;;6.13;;
70997;SDS011;58663;52.040;4.634;2022-07-19T04:26:30;10.20;;;5.88;;
70997;SDS011;58663;52.040;4.634;2022-07-19T04:28:56;10.27;;;6.40;;
70997;SDS011;58663;52.040;4.634;2022-07-19T04:31:21;8.90;;;5.70;;
70997;SDS011;58663;52.040;4.634;2022-07-19T04:33:47;11.20;;;6.32;;
70997;SDS011;58663;52.040;4.634;2022-07-19T04:36:12;12.15;;;6.18;;
70997;SDS011;58663;52.040;4.634;2022-07-19T04:38:37;13.20;;;7.07;;
70997;SDS011;58663;52.040;4.634;2022-07-19T04:41:03;11.88;;;7.05;;
70997;SDS011;58663;52.040;4.634;2022-07-19T04:43:29;10.15;;;6.20;;
70997;SDS011;58663;52.040;4.634;2022-07-19T04:45:54;10.18;;;6.28;;
70997;SDS011;58663;52.040;4.634;2022-07-19T04:48:21;12.55;;;7.10;;
70997;SDS011;58663;52.040;4.634;2022-07-19T04:50:47;9.00;;;5.55;;
70997;SDS011;58663;52.040;4.634;2022-07-19T04:53:12;10.38;;;6.13;;
70997;SDS011;58663;52.040;4.634;2022-07-19T04:55:37;8.68;;;6.05;;
70997;SDS011;58663;52.040;4.634;2022-07-19T04:58:03;10.93;;;6.75;;
70997;SDS011;58663;52.040;4.634;2022-07-19T05:00:29;10.55;;;6.05;;
70997;SDS011;58663;52.040;4.634;2022-07-19T05:02:54;9.73;;;6.75;;
70997;SDS011;58663;52.040;4.634;2022-07-19T05:05:20;9.65;;;6.22;;
70997;SDS011;58663;52.040;4.634;2022-07-19T05:07:46;8.93;;;6.13;;
70997;SDS011;58663;52.040;4.634;2022-07-19T05:10:12;9.05;;;6.07;;
70997;SDS011;58663;52.040;4.634;2022-07-19T05:12:38;9.93;;;7.07;;
70997;SDS011;58663;52.040;4.634;2022-07-19T05:15:04;9.05;;;5.93;;
70997;SDS011;58663;52.040;4.634;2022-07-19T05:17:30;12.93;;;6.60;;
70997;SDS011;58663;52.040;4.634;2022-07-19T05:19:56;13.35;;;6.78;;
70997;SDS011;58663;52.040;4.634;2022-07-19T05:22:21;10.38;;;6.88;;
70997;SDS011;58663;52.040;4.634;2022-07-19T05:24:49;11.48;;;6.72;;
70997;SDS011;58663;52.040;4.634;2022-07-19T05:27:14;10.50;;;7.03;;
70997;SDS011;58663;52.040;4.634;2022-07-19T05:29:40;16.48;;;6.90;;
70997;SDS011;58663;52.040;4.634;2022-07-19T05:32:07;11.10;;;6.25;;
70997;SDS011;58663;52.040;4.634;2022-07-19T05:34:33;11.65;;;5.70;;
70997;SDS011;58663;52.040;4.634;2022-07-19T05:36:58;11.25;;;6.22;;
70997;SDS011;58663;52.040;4.634;2022-07-19T05:39:23;12.88;;;6.72;;
70997;SDS011;58663;52.040;4.634;2022-07-19T05:41:49;11.27;;;6.60;;
70997;SDS011;58663;52.040;4.634;2022-07-19T05:44:14;14.00;;;6.35;;
70997;SDS011;58663;52.040;4.634;2022-07-19T05:46:40;9.40;;;5.70;;
70997;SDS011;58663;52.040;4.634;2022-07-19T05:49:08;10.75;;;6.45;;
70997;SDS011;58663;52.040;4.634;2022-07-19T05:51:35;10.25;;;5.95;;
70997;SDS011;58663;52.040;4.634;2022-07-19T05:54:01;10.65;;;6.13;;
70997;SDS011;58663;52.040;4.634;2022-07-19T05:56:28;12.88;;;6.03;;
70997;SDS011;58663;52.040;4.634;2022-07-19T05:58:53;14.85;;;5.57;;
70997;SDS011;58663;52.040;4.634;2022-07-19T06:01:19;11.32;;;6.05;;
70997;SDS011;58663;52.040;4.634;2022-07-19T06:03:45;11.10;;;6.05;;
70997;SDS011;58663;52.040;4.634;2022-07-19T06:06:12;11.48;;;5.97;;
70997;SDS011;58663;52.040;4.634;2022-07-19T06:08:38;9.82;;;5.22;;
70997;SDS011;58663;52.040;4.634;2022-07-19T06:11:04;16.17;;;5.80;;
70997;SDS011;58663;52.040;4.634;2022-07-19T06:13:30;9.80;;;5.72;;
70997;SDS011;58663;52.040;4.634;2022-07-19T06:15:55;9.00;;;5.57;;
70997;SDS011;58663;52.040;4.634;2022-07-19T06:18:20;14.27;;;5.70;;
70997;SDS011;58663;52.040;4.634;2022-07-19T06:20:46;13.75;;;6.03;;
70997;SDS011;58663;52.040;4.634;2022-07-19T06:23:11;13.73;;;6.13;;
70997;SDS011;58663;52.040;4.634;2022-07-19T06:25:37;10.02;;;4.90;;
70997;SDS011;58663;52.040;4.634;2022-07-19T06:28:02;13.70;;;5.05;;
70997;SDS011;58663;52.040;4.634;2022-07-19T06:30:28;10.57;;;4.93;;
70997;SDS011;58663;52.040;4.634;2022-07-19T06:32:53;10.60;;;5.25;;
70997;SDS011;58663;52.040;4.634;2022-07-19T06:35:19;10.85;;;5.55;;
70997;SDS011;58663;52.040;4.634;2022-07-19T06:37:44;9.57;;;4.95;;
70997;SDS011;58663;52.040;4.634;2022-07-19T06:40:10;12.05;;;5.07;;
70997;SDS011;58663;52.040;4.634;2022-07-19T06:42:35;11.55;;;5.22;;
70997;SDS011;58663;52.040;4.634;2022-07-19T06:45:01;10.57;;;5.07;;
70997;SDS011;58663;52.040;4.634;2022-07-19T06:47:30;12.98;;;5.78;;
70997;SDS011;58663;52.040;4.634;2022-07-19T06:49:57;8.68;;;5.80;;
70997;SDS011;58663;52.040;4.634;2022-07-19T06:52:23;10.82;;;5.40;;
70997;SDS011;58663;52.040;4.634;2022-07-19T06:54:48;8.75;;;5.60;;
70997;SDS011;58663;52.040;4.634;2022-07-19T06:57:14;14.93;;;5.90;;
70997;SDS011;58663;52.040;4.634;2022-07-19T06:59:39;11.65;;;5.55;;
70997;SDS011;58663;52.040;4.634;2022-07-19T07:02:05;14.15;;;6.00;;
70997;SDS011;58663;52.040;4.634;2022-07-19T07:04:30;11.45;;;5.45;;
70997;SDS011;58663;52.040;4.634;2022-07-19T07:06:56;8.48;;;5.00;;
70997;SDS011;58663;52.040;4.634;2022-07-19T07:09:22;14.05;;;4.88;;
70997;SDS011;58663;52.040;4.634;2022-07-19T07:11:47;9.77;;;5.10;;
70997;SDS011;58663;52.040;4.634;2022-07-19T07:14:13;12.27;;;4.55;;
70997;SDS011;58663;52.040;4.634;2022-07-19T07:16:38;10.45;;;4.93;;
70997;SDS011;58663;52.040;4.634;2022-07-19T07:19:04;13.18;;;4.97;;
70997;SDS011;58663;52.040;4.634;2022-07-19T07:21:30;8.73;;;4.53;;
70997;SDS011;58663;52.040;4.634;2022-07-19T07:23:58;10.50;;;4.97;;
70997;SDS011;58663;52.040;4.634;2022-07-19T07:26:23;12.18;;;5.15;;
70997;SDS011;58663;52.040;4.634;2022-07-19T07:28:49;14.10;;;5.20;;
70997;SDS011;58663;52.040;4.634;2022-07-19T07:31:14;7.68;;;4.07;;
70997;SDS011;58663;52.040;4.634;2022-07-19T07:33:40;8.73;;;5.00;;
70997;SDS011;58663;52.040;4.634;2022-07-19T07:36:05;9.55;;;4.60;;
70997;SDS011;58663;52.040;4.634;2022-07-19T07:38:31;11.43;;;4.97;;
70997;SDS011;58663;52.040;4.634;2022-07-19T07:40:56;13.07;;;5.20;;
70997;SDS011;58663;52.040;4.634;2022-07-19T07:43:22;12.32;;;5.00;;
70997;SDS011;58663;52.040;4.634;2022-07-19T07:45:48;9.90;;;4.72;;
70997;SDS011;58663;52.040;4.634;2022-07-19T07:48:13;10.10;;;5.25;;
70997;SDS011;58663;52.040;4.634;2022-07-19T07:50:39;10.27;;;5.45;;
70997;SDS011;58663;52.040;4.634;2022-07-19T07:53:05;9.20;;;4.35;;
70997;SDS011;58663;52.040;4.634;2022-07-19T07:55:30;14.20;;;5.60;;
70997;SDS011;58663;52.040;4.634;2022-07-19T07:57:56;9.98;;;6.63;;
70997;SDS011;58663;52.040;4.634;2022-07-19T08:00:21;15.35;;;7.25;;
70997;SDS011;58663;52.040;4.634;2022-07-19T08:02:47;11.57;;;7.15;;
70997;SDS011;58663;52.040;4.634;2022-07-19T08:05:14;14.50;;;6.95;;
70997;SDS011;58663;52.040;4.634;2022-07-19T08:07:40;12.85;;;6.95;;
70997;SDS011;58663;52.040;4.634;2022-07-19T08:10:06;9.75;;;6.30;;
70997;SDS011;58663;52.040;4.634;2022-07-19T08:12:33;10.98;;;5.65;;
70997;SDS011;58663;52.040;4.634;2022-07-19T08:14:59;12.52;;;6.32;;
70997;SDS011;58663;52.040;4.634;2022-07-19T08:17:24;17.17;;;6.20;;
70997;SDS011;58663;52.040;4.634;2022-07-19T08:19:50;15.07;;;7.65;;
70997;SDS011;58663;52.040;4.634;2022-07-19T08:22:16;12.15;;;6.53;;
70997;SDS011;58663;52.040;4.634;2022-07-19T08:24:42;11.70;;;7.18;;
70997;SDS011;58663;52.040;4.634;2022-07-19T08:27:08;13.32;;;7.65;;
70997;SDS011;58663;52.040;4.634;2022-07-19T08:29:33;14.82;;;7.15;;
70997;SDS011;58663;52.040;4.634;2022-07-19T08:31:59;13.55;;;6.88;;
70997;SDS011;58663;52.040;4.634;2022-07-19T08:34:24;14.68;;;7.80;;
70997;SDS011;58663;52.040;4.634;2022-07-19T08:36:50;13.30;;;6.63;;
70997;SDS011;58663;52.040;4.634;2022-07-19T08:39:15;11.73;;;6.38;;
70997;SDS011;58663;52.040;4.634;2022-07-19T08:41:43;11.25;;;6.10;;
70997;SDS011;58663;52.040;4.634;2022-07-19T08:44:12;10.23;;;6.00;;
70997;SDS011;58663;52.040;4.634;2022-07-19T08:46:40;9.85;;;6.07;;
70997;SDS011;58663;52.040;4.634;2022-07-19T08:49:06;12.23;;;6.20;;
70997;SDS011;58663;52.040;4.634;2022-07-19T08:51:33;17.20;;;5.80;;
70997;SDS011;58663;52.040;4.634;2022-07-19T08:53:59;12.48;;;5.40;;
70997;SDS011;58663;52.040;4.634;2022-07-19T08:56:25;10.20;;;5.18;;
70997;SDS011;58663;52.040;4.634;2022-07-19T08:59:08;12.75;;;5.45;;
70997;SDS011;58663;52.040;4.634;2022-07-19T09:01:34;10.00;;;5.00;;
70997;SDS011;58663;52.040;4.634;2022-07-19T09:04:14;14.00;;;5.53;;
70997;SDS011;58663;52.040;4.634;2022-07-19T09:06:45;9.68;;;4.85;;
70997;SDS011;58663;52.040;4.634;2022-07-19T09:09:16;8.48;;;4.07;;
70997;SDS011;58663;52.040;4.634;2022-07-19T09:11:46;17.20;;;4.50;;
70997;SDS011;58663;52.040;4.634;2022-07-19T09:14:14;5.18;;;3.58;;
70997;SDS011;58663;52.040;4.634;2022-07-19T09:16:48;5.82;;;3.58;;
70997;SDS011;58663;52.040;4.634;2022-07-19T09:19:26;8.35;;;3.58;;
70997;SDS011;58663;52.040;4.634;2022-07-19T09:21:54;8.30;;;3.58;;
70997;SDS011;58663;52.040;4.634;2022-07-19T09:24:22;6.35;;;3.53;;
70997;SDS011;58663;52.040;4.634;2022-07-19T09:29:20;8.73;;;3.20;;
70997;SDS011;58663;52.040;4.634;2022-07-19T09:31:58;6.38;;;2.90;;
70997;SDS011;58663;52.040;4.634;2022-07-19T09:34:30;4.68;;;2.78;;
70997;SDS011;58663;52.040;4.634;2022-07-19T09:37:19;5.97;;;2.55;;
70997;SDS011;58663;52.040;4.634;2022-07-19T09:39:51;5.78;;;2.42;;
70997;SDS011;58663;52.040;4.634;2022-07-19T09:42:37;3.15;;;2.28;;
70997;SDS011;58663;52.040;4.634;2022-07-19T09:45:05;6.60;;;2.50;;
70997;SDS011;58663;52.040;4.634;2022-07-19T09:49:59;2.95;;;2.00;;
70997;SDS011;58663;52.040;4.634;2022-07-19T09:52:25;8.38;;;3.13;;
70997;SDS011;58663;52.040;4.634;2022-07-19T09:54:50;7.45;;;2.67;;
70997;SDS011;58663;52.040;4.634;2022-07-19T09:57:16;5.03;;;2.47;;
70997;SDS011;58663;52.040;4.634;2022-07-19T09:59:48;5.65;;;2.20;;
70997;SDS011;58663;52.040;4.634;2022-07-19T10:02:16;4.93;;;2.23;;
70997;SDS011;58663;52.040;4.634;2022-07-19T10:04:44;5.65;;;2.10;;
70997;SDS011;58663;52.040;4.634;2022-07-19T10:07:10;4.18;;;2.00;;
70997;SDS011;58663;52.040;4.634;2022-07-19T10:09:38;9.68;;;2.20;;
70997;SDS011;58663;52.040;4.634;2022-07-19T10:12:04;5.55;;;2.35;;
70997;SDS011;58663;52.040;4.634;2022-07-19T10:14:29;7.32;;;2.67;;
70997;SDS011;58663;52.040;4.634;2022-07-19T10:22:02;5.25;;;2.38;;
70997;SDS011;58663;52.040;4.634;2022-07-19T10:27:14;5.07;;;2.50;;
70997;SDS011;58663;52.040;4.634;2022-07-19T10:32:33;3.50;;;1.83;;
70997;SDS011;58663;52.040;4.634;2022-07-19T10:35:14;4.32;;;1.88;;
70997;SDS011;58663;52.040;4.634;2022-07-19T10:37:44;2.58;;;2.00;;
70997;SDS011;58663;52.040;4.634;2022-07-19T10:40:11;3.60;;;2.10;;
70997;SDS011;58663;52.040;4.634;2022-07-19T10:42:36;4.75;;;2.35;;
70997;SDS011;58663;52.040;4.634;2022-07-19T10:50:03;3.63;;;2.20;;
70997;SDS011;58663;52.040;4.634;2022-07-19T10:52:38;4.05;;;1.90;;
70997;SDS011;58663;52.040;4.634;2022-07-19T11:00:32;6.35;;;2.40;;
70997;SDS011;58663;52.040;4.634;2022-07-19T11:05:50;2.50;;;2.15;;
70997;SDS011;58663;52.040;4.634;2022-07-19T11:08:16;5.00;;;2.10;;
70997;SDS011;58663;52.040;4.634;2022-07-19T11:10:42;4.28;;;2.30;;
70997;SDS011;58663;52.040;4.634;2022-07-19T11:13:07;3.28;;;1.92;;
70997;SDS011;58663;52.040;4.634;2022-07-19T11:15:33;7.40;;;2.10;;
70997;SDS011;58663;52.040;4.634;2022-07-19T11:18:05;7.40;;;2.30;;
70997;SDS011;58663;52.040;4.634;2022-07-19T11:20:33;3.38;;;1.80;;
70997;SDS011;58663;52.040;4.634;2022-07-19T11:23:00;2.30;;;1.85;;
70997;SDS011;58663;52.040;4.634;2022-07-19T11:27:54;8.85;;;2.10;;
70997;SDS011;58663;52.040;4.634;2022-07-19T11:30:20;5.68;;;2.08;;
70997;SDS011;58663;52.040;4.634;2022-07-19T11:32:51;2.90;;;2.55;;
70997;SDS011;58663;52.040;4.634;2022-07-19T11:35:23;3.90;;;2.13;;
70997;SDS011;58663;52.040;4.634;2022-07-19T11:37:52;4.90;;;2.20;;
70997;SDS011;58663;52.040;4.634;2022-07-19T11:40:18;7.72;;;2.30;;
70997;SDS011;58663;52.040;4.634;2022-07-19T11:42:45;8.82;;;2.38;;
70997;SDS011;58663;52.040;4.634;2022-07-19T11:45:15;3.03;;;2.30;;
70997;SDS011;58663;52.040;4.634;2022-07-19T11:47:49;3.00;;;2.30;;
70997;SDS011;58663;52.040;4.634;2022-07-19T11:50:20;6.97;;;2.72;;
70997;SDS011;58663;52.040;4.634;2022-07-19T11:52:54;5.97;;;2.53;;
70997;SDS011;58663;52.040;4.634;2022-07-19T11:55:24;3.80;;;2.50;;
70997;SDS011;58663;52.040;4.634;2022-07-19T11:57:51;4.60;;;2.33;;
70997;SDS011;58663;52.040;4.634;2022-07-19T12:00:18;5.40;;;2.70;;
70997;SDS011;58663;52.040;4.634;2022-07-19T12:03:00;4.53;;;2.28;;
70997;SDS011;58663;52.040;4.634;2022-07-19T12:05:34;10.45;;;2.67;;
70997;SDS011;58663;52.040;4.634;2022-07-19T12:08:05;6.22;;;2.72;;
70997;SDS011;58663;52.040;4.634;2022-07-19T12:13:05;6.68;;;2.65;;
70997;SDS011;58663;52.040;4.634;2022-07-19T12:15:45;7.22;;;2.25;;
70997;SDS011;58663;52.040;4.634;2022-07-19T12:18:14;3.10;;;2.20;;
70997;SDS011;58663;52.040;4.634;2022-07-19T12:20:42;8.37;;;2.60;;
70997;SDS011;58663;52.040;4.634;2022-07-19T12:23:17;3.47;;;2.30;;
70997;SDS011;58663;52.040;4.634;2022-07-19T12:25:48;3.80;;;2.40;;
70997;SDS011;58663;52.040;4.634;2022-07-19T12:28:14;2.60;;;2.38;;
70997;SDS011;58663;52.040;4.634;2022-07-19T12:30:39;3.10;;;2.50;;
70997;SDS011;58663;52.040;4.634;2022-07-19T12:33:06;3.58;;;2.40;;
70997;SDS011;58663;52.040;4.634;2022-07-19T12:35:45;5.05;;;2.47;;
70997;SDS011;58663;52.040;4.634;2022-07-19T12:38:12;4.63;;;2.20;;
70997;SDS011;58663;52.040;4.634;2022-07-19T12:40:39;4.75;;;2.45;;
70997;SDS011;58663;52.040;4.634;2022-07-19T12:43:08;3.50;;;2.40;;
70997;SDS011;58663;52.040;4.634;2022-07-19T12:48:09;4.15;;;2.30;;
70997;SDS011;58663;52.040;4.634;2022-07-19T12:50:38;5.65;;;2.35;;
70997;SDS011;58663;52.040;4.634;2022-07-19T12:53:05;3.15;;;2.58;;
70997;SDS011;58663;52.040;4.634;2022-07-19T12:55:32;5.40;;;2.40;;
70997;SDS011;58663;52.040;4.634;2022-07-19T12:58:00;7.35;;;2.30;;
70997;SDS011;58663;52.040;4.634;2022-07-19T13:00:27;7.28;;;2.40;;
70997;SDS011;58663;52.040;4.634;2022-07-19T13:02:53;2.65;;;2.45;;
70997;SDS011;58663;52.040;4.634;2022-07-19T13:05:20;4.20;;;3.30;;
70997;SDS011;58663;52.040;4.634;2022-07-19T13:07:46;7.28;;;2.95;;
70997;SDS011;58663;52.040;4.634;2022-07-19T13:10:12;3.55;;;2.47;;
70997;SDS011;58663;52.040;4.634;2022-07-19T13:12:38;6.20;;;2.80;;
70997;SDS011;58663;52.040;4.634;2022-07-19T13:15:04;3.38;;;2.25;;
70997;SDS011;58663;52.040;4.634;2022-07-19T13:17:30;4.93;;;2.63;;
70997;SDS011;58663;52.040;4.634;2022-07-19T13:19:56;3.65;;;2.60;;
70997;SDS011;58663;52.040;4.634;2022-07-19T13:22:21;6.38;;;2.42;;
70997;SDS011;58663;52.040;4.634;2022-07-19T13:24:47;3.30;;;2.25;;
70997;SDS011;58663;52.040;4.634;2022-07-19T13:27:12;4.68;;;2.97;;
70997;SDS011;58663;52.040;4.634;2022-07-19T13:29:40;5.97;;;2.08;;
70997;SDS011;58663;52.040;4.634;2022-07-19T13:32:06;8.95;;;2.20;;
70997;SDS011;58663;52.040;4.634;2022-07-19T13:34:32;4.57;;;2.22;;
70997;SDS011;58663;52.040;4.634;2022-07-19T13:36:58;6.00;;;2.65;;
70997;SDS011;58663;52.040;4.634;2022-07-19T13:39:23;7.90;;;2.72;;
70997;SDS011;58663;52.040;4.634;2022-07-19T13:41:50;7.25;;;2.40;;
70997;SDS011;58663;52.040;4.634;2022-07-19T13:44:16;4.90;;;2.58;;
70997;SDS011;58663;52.040;4.634;2022-07-19T13:46:42;3.67;;;2.47;;
70997;SDS011;58663;52.040;4.634;2022-07-19T13:49:07;6.45;;;2.47;;
70997;SDS011;58663;52.040;4.634;2022-07-19T13:51:33;2.42;;;2.22;;
70997;SDS011;58663;52.040;4.634;2022-07-19T13:53:58;4.22;;;1.92;;
70997;SDS011;58663;52.040;4.634;2022-07-19T13:56:24;4.72;;;2.10;;
70997;SDS011;58663;52.040;4.634;2022-07-19T13:58:50;3.90;;;2.20;;
70997;SDS011;58663;52.040;4.634;2022-07-19T14:01:16;3.63;;;2.30;;
70997;SDS011;58663;52.040;4.634;2022-07-19T14:03:42;5.82;;;2.55;;
70997;SDS011;58663;52.040;4.634;2022-07-19T14:06:07;3.55;;;2.30;;
70997;SDS011;58663;52.040;4.634;2022-07-19T14:08:33;3.85;;;2.42;;
70997;SDS011;58663;52.040;4.634;2022-07-19T14:10:59;5.93;;;2.42;;
70997;SDS011;58663;52.040;4.634;2022-07-19T14:13:25;4.10;;;2.10;;
70997;SDS011;58663;52.040;4.634;2022-07-19T14:15:51;3.50;;;2.30;;
70997;SDS011;58663;52.040;4.634;2022-07-19T14:18:17;4.82;;;2.92;;
70997;SDS011;58663;52.040;4.634;2022-07-19T14:20:42;2.38;;;2.10;;
70997;SDS011;58663;52.040;4.634;2022-07-19T14:23:11;2.30;;;2.10;;
70997;SDS011;58663;52.040;4.634;2022-07-19T14:25:38;5.95;;;2.30;;
70997;SDS011;58663;52.040;4.634;2022-07-19T14:28:05;4.22;;;2.45;;
70997;SDS011;58663;52.040;4.634;2022-07-19T14:30:30;4.38;;;2.65;;
70997;SDS011;58663;52.040;4.634;2022-07-19T14:32:56;5.25;;;2.50;;
70997;SDS011;58663;52.040;4.634;2022-07-19T14:35:21;4.38;;;2.10;;
70997;SDS011;58663;52.040;4.634;2022-07-19T14:37:47;3.30;;;2.45;;
70997;SDS011;58663;52.040;4.634;2022-07-19T14:40:13;4.60;;;2.47;;
70997;SDS011;58663;52.040;4.634;2022-07-19T14:42:39;4.88;;;2.55;;
70997;SDS011;58663;52.040;4.634;2022-07-19T14:45:05;4.63;;;2.70;;
70997;SDS011;58663;52.040;4.634;2022-07-19T14:47:32;3.92;;;2.60;;
70997;SDS011;58663;52.040;4.634;2022-07-19T14:49:58;4.53;;;2.50;;
70997;SDS011;58663;52.040;4.634;2022-07-19T14:52:24;3.50;;;2.55;;
70997;SDS011;58663;52.040;4.634;2022-07-19T14:54:49;6.78;;;2.40;;
70997;SDS011;58663;52.040;4.634;2022-07-19T14:57:15;2.88;;;2.65;;
70997;SDS011;58663;52.040;4.634;2022-07-19T14:59:40;5.03;;;2.55;;
70997;SDS011;58663;52.040;4.634;2022-07-19T15:02:05;6.07;;;2.92;;
70997;SDS011;58663;52.040;4.634;2022-07-19T15:04:33;4.97;;;2.85;;
70997;SDS011;58663;52.040;4.634;2022-07-19T15:06:59;5.75;;;2.63;;
70997;SDS011;58663;52.040;4.634;2022-07-19T15:09:25;5.10;;;2.70;;
70997;SDS011;58663;52.040;4.634;2022-07-19T15:11:50;5.18;;;2.88;;
70997;SDS011;58663;52.040;4.634;2022-07-19T15:14:16;3.15;;;2.70;;
70997;SDS011;58663;52.040;4.634;2022-07-19T15:16:41;5.03;;;2.70;;